Hotel/Lodging Scores

The Lodging Program enforces regulations governing establishments where sleeping arrangements made available for people to stay temporarily. These facilities are inspected for cleanliness and condition of the building, furnishings, fixtures, equipment and utensils – they receive a score based out of 100 possible points. Permits are for one year and automatically expire on January 1st each year.

For information about the Lodging Program and the type of facilites inspected, visit here.
ALL A B C D E F G H I J K L M N O P Q R S T U V W X Y Z
Estab#ScoreNameDate# of Units
18191 KINGS INN 1313 3RD AVE N BIRMINGHAM 35203 Number of Units: 125 Date: 05/30/19 05/30/19125
18698 The Redmont Hotel Birmingham 2101 5TH AVE N BIRMINGHAM 35203 Number of Units: 114 Date: 05/29/19 05/29/19114
66498 HILTON GARDEN INN BHAM/TRUSSVILLE 3230 EDWARDS LAKE PKWY BIRMINGHAM 35235 Number of Units: 104 Date: 05/28/19 05/28/19104
21988 RODEWAY INN 9225 PARKWAY E BIRMINGHAM 35206 Number of Units: 89 Date: 05/28/19 05/28/1989
17692 EMBASSY SUITES 2300 WOODCREST PL BIRMINGHAM 35209 Number of Units: 243 Date: 05/22/19 05/22/19243
17394 COURTYARD BY MARRIOTT 500 SHADES CREEK PKWY BIRMINGHAM 35209 Number of Units: 140 Date: 05/16/19 05/16/19140
19993 Hyatt Regency Birmingham-The Wynfrey Hotel 1000 RIVERCHASE GALLERIA BIRMINGHAM 35244 Number of Units: 329 Date: 05/15/19 05/15/19329
26791 MOTEL 8 5009 1ST AVE N BIRMINGHAM 35212 Number of Units: 40 Date: 05/06/19 05/06/1940
68595 RAMADA AIRPORT BIRMINGHAM 5216 MESSER AIRPORT HWY BIRMINGHAM 35212 Number of Units: 196 Date: 05/02/19 05/02/19196
124095 COMFORT SUITES 1325 OLD WALKER CHAPEL RD FULTONDALE 35068 Number of Units: 32 Date: 04/26/19 04/26/1932
130494 COURTYARD BY MARRIOT AT UAB 1820 5TH AVE S BIRMINGHAM 35233 Number of Units: 122 Date: 04/11/19 04/11/19122
16990 ANCHOR MOTEL II 8420 1ST AVE N BIRMINGHAM 35206 Number of Units: 28 Date: 04/10/19 04/10/1928
17088 BAMA MOTEL 6712 1ST AVE N BIRMINGHAM 35206 Number of Units: 21 Date: 04/10/19 04/10/1921
120591 ECONO LODGE 195 OXMOOR RD BIRMINGHAM 35209 Number of Units: 32 Date: 03/28/19 03/28/1932
22895 BEST WESTERN - Gardendale 842 THOMPSON ST GARDENDALE 35071 Number of Units: 59 Date: 03/25/19 03/25/1959
26687 DAYS INN VESTAVIA 1485 MONTGOMERY HWY VESTAVIA 35216 Number of Units: 159 Date: 03/07/19 03/07/19159
23995 FAIRFIELD INN & SUITES 1795 MORRIS AVE FULTONDALE 35068 Number of Units: 75 Date: 03/05/19 03/05/1975
57996 HAMPTON INN 310 Rex Lake RD LEEDS 35094 Number of Units: 105 Date: 02/27/19 02/27/19105
66690 COMFORT INN 4965 MONTEVALLO BIRMINGHAM 35210 Number of Units: 83 Date: 02/19/19 02/19/1983
138498 SOUTHERN COMFORT MOTEL 725 3RD AVE W BIRMINGHAM 35204 Number of Units: 25 Date: 02/15/19 02/15/1925
25494 MICROTEL INN & SUITES 850 ODUM RD GARDENDALE 35071 Number of Units: 81 Date: 02/07/19 02/07/1981
1301100 COMFORT INN 1733 FULTON RD FULTONDALE 35068 Number of Units: 67 Date: 01/30/19 01/30/1967
115694 ALOFT HOTEL 1903 29th AVE S BIRMINGHAM 35209 Number of Units: 111 Date: 01/16/19 01/16/19111
26292 Red Roof Inn 1813 CRESTWOOD BLVD IRONDALE 35210 Number of Units: 135 Date: 01/04/19 01/04/19135
61296 HAMPTON INN & SUITES 3930 GRANTS MILL RD IRONDALE 35210 Number of Units: 99 Date: 01/03/19 01/03/1999
25298 RENAISSANCE ROSS BRIDGE GOLF RESORT 4000 GRAND AVE HOOVER 35226 Number of Units: 259 Date: 12/28/18 12/28/18259
27089 QUALITY INN-IRONDALE 3910 KILGORE MEMORIAL IRONDALE 35210 Number of Units: 70 Date: 12/27/18 12/27/1870
18495 PRINCETON GUEST ROOMS (THE) 817 PRINCETON AVE BIRMINGHAM 35211 Number of Units: 30 Date: 12/27/18 12/27/1830
115992 MOTEL 6 1000 Shiloh LN BESSEMER 35022 Number of Units: 121 Date: 12/26/18 12/26/18121
97296 Americas Best Value Inn 1093 Higrove PKWY LEEDS 35094 Number of Units: 42 Date: 12/20/18 12/20/1842
122791 QUALITY INN 4730 NORRELL DR TRUSSVILLE 35173 Number of Units: 50 Date: 12/19/18 12/19/1850
24696 HOLIDAY INN EXPRESS TRUSSVILLE 5911 VALLEY RD TRUSSVILLE 35173 Number of Units: 64 Date: 12/18/18 12/18/1864
69492 BIRMINGHAM GARDEN INN & SUITES 7901 Crestwood BLVD BIRMINGHAM 35210 Number of Units: 99 Date: 12/12/18 12/12/1899
119298 QUALITY INN 5021 Academy LN BESSEMER 35022 Number of Units: 32 Date: 12/05/18 12/05/1832
127093 HOLIDAY INN EXPRESS & SUITES 811 OLD GRANTS MILL RD IRONDALE 35210 Number of Units: 99 Date: 11/29/18 11/29/1899
23193 COMFORT INN AND SUITES 4740 NORRELL DR TRUSSVILLE 35173 Number of Units: 66 Date: 11/28/18 11/28/1866
133485 USA ECONOMY LODGE 7941 CRESTWOOD BLVD IRONDALE 35210 Number of Units: 206 Date: 11/20/18 11/20/18206
23896 DAYS INN 905 11TH CT W BIRMINGHAM 35204 Number of Units: 106 Date: 11/07/18 11/07/18106
96895 Hilton Garden Inn 2090 Urban Center PKWY VESTAVIA 35242 Number of Units: 130 Date: 11/05/18 11/05/18130
24495 Economy Inn 1113 9TH AVE SW BESSEMER 35022 Number of Units: 120 Date: 11/05/18 11/05/18120
128590 TRAVELERS REST MOTEL 1066 FORESTDALE BLVD BIRMINGHAM 35214 Number of Units: 32 Date: 11/05/18 11/05/1832
22598 BUDGET MOTEL 1548 BANKHEAD HWY BIRMINGHAM 35214 Number of Units: 30 Date: 11/01/18 11/01/1830
131289 TOWN MOTEL 414 3RD AVE W BIRMINGHAM 35204 Number of Units: 35 Date: 10/31/18 10/31/1835
107897 DAYS INN FULTONDALE 616 Decatur HWY FULTONDALE 35068 Number of Units: 74 Date: 10/31/18 10/31/1874
136597 COMFORT INN & SUITES - CROSSPLEX VILLAGE 2341 CROSSPLEX BLVD BIRMINGHAM 35208 Number of Units: 101 Date: 10/25/18 10/25/18101
125193 ELYTON HOTEL 1928 1ST AVE N BIRMINGHAM 35203 Number of Units: 117 Date: 10/19/18 10/19/18117
118786 RED ROOF INN 1466 MONTGOMERY HWY BIRMINGHAM 35216 Number of Units: 118 Date: 10/01/18 10/01/18118
110089 APEX LODGE 1900 33rd AVE N BIRMINGHAM 35207 Number of Units: 26 Date: 09/25/18 09/25/1826
22796 HOLIDAY INN EXPRESS 5001 ACADEMY LN BESSEMER 35022 Number of Units: 63 Date: 08/27/18 08/27/1863
128493 COURTYARD BY MARRIOTT 3665 ROOSEVELT BLVD BIRMINGHAM 35235 Number of Units: 31 Date: 08/21/18 08/21/1831
12345678910...
Central Health Center
(Guy M. Tate)

1400 Sixth Avenue South
Birmingham, AL 35233
Programs and Clinics
(205) 933-9110
Eastern Health Center
601 West Blvd Roebuck
Birmingham, AL 35206
Programs and Clinics
(205) 591-5180
Western Health Center
631 Bessemer Super Hwy
Midfield, AL 35228
Programs and Clinics
(205) 715-6121
Hours of Operation:
All Centers 7:45am - 4:30pm   |  For more information, call  (205) 588-JCDH (5234)
 



Copyright © 2019 Jefferson County Department of Health